sensor_id;sensor_type;location;lat;lon;timestamp;P1;durP1;ratioP1;P2;durP2;ratioP2
55372;SDS011;41249;47.838;16.490;2022-10-04T00:01:42;1.40;;;1.15;;
55372;SDS011;41249;47.838;16.490;2022-10-04T00:06:58;2.28;;;0.57;;
55372;SDS011;41249;47.838;16.490;2022-10-04T00:09:31;1.00;;;0.63;;
55372;SDS011;41249;47.838;16.490;2022-10-04T00:12:01;3.92;;;0.70;;
55372;SDS011;41249;47.838;16.490;2022-10-04T00:14:37;4.57;;;0.98;;
55372;SDS011;41249;47.838;16.490;2022-10-04T00:17:11;1.40;;;0.65;;
55372;SDS011;41249;47.838;16.490;2022-10-04T00:19:46;2.40;;;0.85;;
55372;SDS011;41249;47.838;16.490;2022-10-04T00:22:18;2.20;;;0.60;;
55372;SDS011;41249;47.838;16.490;2022-10-04T00:25:00;2.80;;;0.70;;
55372;SDS011;41249;47.838;16.490;2022-10-04T00:27:33;0.73;;;0.50;;
55372;SDS011;41249;47.838;16.490;2022-10-04T00:40:37;1.60;;;0.70;;
55372;SDS011;41249;47.838;16.490;2022-10-04T00:43:13;1.05;;;0.80;;
55372;SDS011;41249;47.838;16.490;2022-10-04T00:45:44;1.60;;;0.88;;
55372;SDS011;41249;47.838;16.490;2022-10-04T00:51:01;2.03;;;0.88;;
55372;SDS011;41249;47.838;16.490;2022-10-04T00:56:27;2.03;;;0.70;;
55372;SDS011;41249;47.838;16.490;2022-10-04T01:01:22;1.08;;;0.77;;
55372;SDS011;41249;47.838;16.490;2022-10-04T01:03:53;2.08;;;0.70;;
55372;SDS011;41249;47.838;16.490;2022-10-04T01:06:23;2.42;;;0.90;;
55372;SDS011;41249;47.838;16.490;2022-10-04T01:08:52;0.80;;;0.70;;
55372;SDS011;41249;47.838;16.490;2022-10-04T01:11:22;2.67;;;1.00;;
55372;SDS011;41249;47.838;16.490;2022-10-04T01:13:57;2.45;;;0.90;;
55372;SDS011;41249;47.838;16.490;2022-10-04T01:16:27;1.92;;;0.70;;
55372;SDS011;41249;47.838;16.490;2022-10-04T01:24:34;1.73;;;0.80;;
55372;SDS011;41249;47.838;16.490;2022-10-04T01:27:02;1.95;;;0.90;;
55372;SDS011;41249;47.838;16.490;2022-10-04T01:29:49;1.98;;;0.80;;
55372;SDS011;41249;47.838;16.490;2022-10-04T01:32:17;5.00;;;1.20;;
55372;SDS011;41249;47.838;16.490;2022-10-04T01:34:43;3.13;;;1.00;;
55372;SDS011;41249;47.838;16.490;2022-10-04T01:37:10;4.32;;;1.25;;
55372;SDS011;41249;47.838;16.490;2022-10-04T01:39:36;1.83;;;0.90;;
55372;SDS011;41249;47.838;16.490;2022-10-04T01:42:08;2.72;;;0.80;;
55372;SDS011;41249;47.838;16.490;2022-10-04T01:44:44;4.05;;;1.10;;
55372;SDS011;41249;47.838;16.490;2022-10-04T01:47:24;2.55;;;1.13;;
55372;SDS011;41249;47.838;16.490;2022-10-04T01:49:56;1.50;;;0.80;;
55372;SDS011;41249;47.838;16.490;2022-10-04T01:52:34;2.45;;;0.80;;
55372;SDS011;41249;47.838;16.490;2022-10-04T01:55:11;2.05;;;0.98;;
55372;SDS011;41249;47.838;16.490;2022-10-04T01:57:48;3.67;;;1.08;;
55372;SDS011;41249;47.838;16.490;2022-10-04T02:02:51;3.92;;;1.13;;
55372;SDS011;41249;47.838;16.490;2022-10-04T02:05:34;1.83;;;1.00;;
55372;SDS011;41249;47.838;16.490;2022-10-04T02:08:05;2.00;;;1.08;;
55372;SDS011;41249;47.838;16.490;2022-10-04T02:10:35;3.35;;;1.00;;
55372;SDS011;41249;47.838;16.490;2022-10-04T02:13:09;1.70;;;1.10;;
55372;SDS011;41249;47.838;16.490;2022-10-04T02:15:39;4.25;;;1.10;;
55372;SDS011;41249;47.838;16.490;2022-10-04T02:18:10;2.58;;;1.15;;
55372;SDS011;41249;47.838;16.490;2022-10-04T02:20:40;1.45;;;0.70;;
55372;SDS011;41249;47.838;16.490;2022-10-04T02:23:08;1.98;;;0.85;;
55372;SDS011;41249;47.838;16.490;2022-10-04T02:25:36;3.95;;;1.00;;
55372;SDS011;41249;47.838;16.490;2022-10-04T02:28:04;3.13;;;0.93;;
55372;SDS011;41249;47.838;16.490;2022-10-04T02:30:36;1.45;;;0.80;;
55372;SDS011;41249;47.838;16.490;2022-10-04T02:33:05;2.97;;;0.98;;
55372;SDS011;41249;47.838;16.490;2022-10-04T02:35:33;2.42;;;1.00;;
55372;SDS011;41249;47.838;16.490;2022-10-04T02:38:07;3.25;;;0.95;;
55372;SDS011;41249;47.838;16.490;2022-10-04T02:41:00;2.90;;;0.82;;
55372;SDS011;41249;47.838;16.490;2022-10-04T02:43:33;1.33;;;0.80;;
55372;SDS011;41249;47.838;16.490;2022-10-04T02:46:11;0.80;;;0.70;;
55372;SDS011;41249;47.838;16.490;2022-10-04T02:48:46;1.92;;;0.70;;
55372;SDS011;41249;47.838;16.490;2022-10-04T02:51:18;2.42;;;0.70;;
55372;SDS011;41249;47.838;16.490;2022-10-04T02:53:55;6.53;;;1.00;;
55372;SDS011;41249;47.838;16.490;2022-10-04T02:56:43;2.25;;;0.82;;
55372;SDS011;41249;47.838;16.490;2022-10-04T02:59:12;2.97;;;1.05;;
55372;SDS011;41249;47.838;16.490;2022-10-04T03:01:45;2.38;;;0.68;;
55372;SDS011;41249;47.838;16.490;2022-10-04T03:04:24;2.33;;;0.70;;
55372;SDS011;41249;47.838;16.490;2022-10-04T03:07:04;1.65;;;1.00;;
55372;SDS011;41249;47.838;16.490;2022-10-04T03:09:34;1.23;;;0.70;;
55372;SDS011;41249;47.838;16.490;2022-10-04T03:12:03;1.95;;;0.77;;
55372;SDS011;41249;47.838;16.490;2022-10-04T03:14:30;5.63;;;1.00;;
55372;SDS011;41249;47.838;16.490;2022-10-04T03:16:59;1.80;;;0.80;;
55372;SDS011;41249;47.838;16.490;2022-10-04T03:19:29;2.63;;;0.77;;
55372;SDS011;41249;47.838;16.490;2022-10-04T03:21:58;1.23;;;0.80;;
55372;SDS011;41249;47.838;16.490;2022-10-04T03:24:36;1.38;;;0.70;;
55372;SDS011;41249;47.838;16.490;2022-10-04T03:30:11;3.28;;;0.80;;
55372;SDS011;41249;47.838;16.490;2022-10-04T03:32:39;2.40;;;0.80;;
55372;SDS011;41249;47.838;16.490;2022-10-04T03:35:11;2.00;;;0.90;;
55372;SDS011;41249;47.838;16.490;2022-10-04T03:37:54;1.30;;;0.70;;
55372;SDS011;41249;47.838;16.490;2022-10-04T03:40:23;1.40;;;0.70;;
55372;SDS011;41249;47.838;16.490;2022-10-04T03:42:54;0.75;;;0.55;;
55372;SDS011;41249;47.838;16.490;2022-10-04T03:45:23;5.22;;;0.80;;
55372;SDS011;41249;47.838;16.490;2022-10-04T03:47:53;2.50;;;0.80;;
55372;SDS011;41249;47.838;16.490;2022-10-04T03:50:30;1.48;;;0.77;;
55372;SDS011;41249;47.838;16.490;2022-10-04T03:53:02;1.92;;;1.20;;
55372;SDS011;41249;47.838;16.490;2022-10-04T03:55:36;1.75;;;0.73;;
55372;SDS011;41249;47.838;16.490;2022-10-04T03:58:08;1.63;;;0.60;;
55372;SDS011;41249;47.838;16.490;2022-10-04T04:00:43;0.80;;;0.63;;
55372;SDS011;41249;47.838;16.490;2022-10-04T04:03:20;1.13;;;0.70;;
55372;SDS011;41249;47.838;16.490;2022-10-04T04:05:56;2.55;;;0.80;;
55372;SDS011;41249;47.838;16.490;2022-10-04T04:08:28;1.35;;;0.90;;
55372;SDS011;41249;47.838;16.490;2022-10-04T04:10:59;1.90;;;0.90;;
55372;SDS011;41249;47.838;16.490;2022-10-04T04:15:58;1.73;;;0.85;;
55372;SDS011;41249;47.838;16.490;2022-10-04T04:18:29;3.20;;;0.80;;
55372;SDS011;41249;47.838;16.490;2022-10-04T04:20:58;2.15;;;0.70;;
55372;SDS011;41249;47.838;16.490;2022-10-04T04:23:29;2.88;;;0.73;;
55372;SDS011;41249;47.838;16.490;2022-10-04T04:26:09;1.63;;;0.65;;
55372;SDS011;41249;47.838;16.490;2022-10-04T04:29:01;1.67;;;0.80;;
55372;SDS011;41249;47.838;16.490;2022-10-04T04:31:35;4.18;;;0.90;;
55372;SDS011;41249;47.838;16.490;2022-10-04T04:34:21;0.75;;;0.55;;
55372;SDS011;41249;47.838;16.490;2022-10-04T04:36:50;0.73;;;0.63;;
55372;SDS011;41249;47.838;16.490;2022-10-04T04:39:22;2.50;;;0.80;;
55372;SDS011;41249;47.838;16.490;2022-10-04T04:42:29;1.27;;;0.73;;
55372;SDS011;41249;47.838;16.490;2022-10-04T04:44:59;1.38;;;0.60;;
55372;SDS011;41249;47.838;16.490;2022-10-04T04:47:38;3.88;;;0.70;;
55372;SDS011;41249;47.838;16.490;2022-10-04T04:50:16;0.65;;;0.57;;
55372;SDS011;41249;47.838;16.490;2022-10-04T04:52:45;1.70;;;0.70;;
55372;SDS011;41249;47.838;16.490;2022-10-04T04:58:34;1.60;;;0.80;;
55372;SDS011;41249;47.838;16.490;2022-10-04T05:03:32;1.67;;;0.85;;
55372;SDS011;41249;47.838;16.490;2022-10-04T05:05:59;1.67;;;0.60;;
55372;SDS011;41249;47.838;16.490;2022-10-04T05:08:30;1.95;;;0.85;;
55372;SDS011;41249;47.838;16.490;2022-10-04T05:16:37;4.43;;;0.88;;
55372;SDS011;41249;47.838;16.490;2022-10-04T05:19:33;1.55;;;0.68;;
55372;SDS011;41249;47.838;16.490;2022-10-04T05:22:06;1.35;;;0.60;;
55372;SDS011;41249;47.838;16.490;2022-10-04T05:24:39;1.50;;;0.60;;
55372;SDS011;41249;47.838;16.490;2022-10-04T05:29:54;1.38;;;0.70;;
55372;SDS011;41249;47.838;16.490;2022-10-04T05:35:21;2.30;;;0.73;;
55372;SDS011;41249;47.838;16.490;2022-10-04T05:38:03;2.30;;;0.75;;
55372;SDS011;41249;47.838;16.490;2022-10-04T05:48:53;4.82;;;1.02;;
55372;SDS011;41249;47.838;16.490;2022-10-04T05:51:27;3.03;;;0.77;;
55372;SDS011;41249;47.838;16.490;2022-10-04T05:53:56;4.03;;;1.13;;
55372;SDS011;41249;47.838;16.490;2022-10-04T06:04:54;1.30;;;0.68;;
55372;SDS011;41249;47.838;16.490;2022-10-04T06:08:09;0.77;;;0.52;;
55372;SDS011;41249;47.838;16.490;2022-10-04T06:10:47;1.20;;;0.80;;
55372;SDS011;41249;47.838;16.490;2022-10-04T06:24:51;3.60;;;0.98;;
55372;SDS011;41249;47.838;16.490;2022-10-04T06:30:14;2.78;;;0.85;;
55372;SDS011;41249;47.838;16.490;2022-10-04T06:36:02;2.05;;;0.70;;
55372;SDS011;41249;47.838;16.490;2022-10-04T06:41:49;2.17;;;0.70;;
55372;SDS011;41249;47.838;16.490;2022-10-04T06:44:33;3.20;;;0.60;;
55372;SDS011;41249;47.838;16.490;2022-10-04T06:52:25;3.33;;;0.70;;
55372;SDS011;41249;47.838;16.490;2022-10-04T07:00:25;7.72;;;2.90;;
55372;SDS011;41249;47.838;16.490;2022-10-04T07:02:58;6.18;;;1.02;;
55372;SDS011;41249;47.838;16.490;2022-10-04T07:08:17;2.83;;;0.90;;
55372;SDS011;41249;47.838;16.490;2022-10-04T07:11:04;1.55;;;0.60;;
55372;SDS011;41249;47.838;16.490;2022-10-04T07:16:07;1.67;;;0.70;;
55372;SDS011;41249;47.838;16.490;2022-10-04T07:21:08;2.70;;;0.70;;
55372;SDS011;41249;47.838;16.490;2022-10-04T07:23:43;1.90;;;0.70;;
55372;SDS011;41249;47.838;16.490;2022-10-04T07:26:20;1.63;;;0.77;;
55372;SDS011;41249;47.838;16.490;2022-10-04T07:28:54;1.35;;;0.63;;
55372;SDS011;41249;47.838;16.490;2022-10-04T07:31:45;1.35;;;0.80;;
55372;SDS011;41249;47.838;16.490;2022-10-04T07:34:20;3.65;;;0.93;;
55372;SDS011;41249;47.838;16.490;2022-10-04T07:36:52;2.78;;;0.90;;
55372;SDS011;41249;47.838;16.490;2022-10-04T07:39:26;2.00;;;0.70;;
55372;SDS011;41249;47.838;16.490;2022-10-04T07:42:19;1.73;;;0.80;;
55372;SDS011;41249;47.838;16.490;2022-10-04T07:44:53;1.63;;;0.70;;
55372;SDS011;41249;47.838;16.490;2022-10-04T07:47:28;1.83;;;0.60;;
55372;SDS011;41249;47.838;16.490;2022-10-04T07:49:57;2.33;;;0.80;;
55372;SDS011;41249;47.838;16.490;2022-10-04T07:57:56;2.10;;;0.65;;
55372;SDS011;41249;47.838;16.490;2022-10-04T08:00:46;1.77;;;0.60;;
55372;SDS011;41249;47.838;16.490;2022-10-04T08:06:11;2.28;;;0.70;;
55372;SDS011;41249;47.838;16.490;2022-10-04T08:09:02;2.05;;;0.70;;
55372;SDS011;41249;47.838;16.490;2022-10-04T08:11:46;2.00;;;0.75;;
55372;SDS011;41249;47.838;16.490;2022-10-04T08:14:47;2.97;;;0.82;;
55372;SDS011;41249;47.838;16.490;2022-10-04T08:23:04;1.58;;;0.70;;
55372;SDS011;41249;47.838;16.490;2022-10-04T08:25:41;1.85;;;0.70;;
55372;SDS011;41249;47.838;16.490;2022-10-04T08:28:22;1.63;;;0.70;;
55372;SDS011;41249;47.838;16.490;2022-10-04T08:31:17;1.65;;;1.00;;
55372;SDS011;41249;47.838;16.490;2022-10-04T08:36:31;2.22;;;0.77;;
55372;SDS011;41249;47.838;16.490;2022-10-04T08:39:05;2.72;;;0.73;;
55372;SDS011;41249;47.838;16.490;2022-10-04T08:51:00;2.03;;;0.80;;
55372;SDS011;41249;47.838;16.490;2022-10-04T08:59:42;1.90;;;0.80;;
55372;SDS011;41249;47.838;16.490;2022-10-04T09:02:37;2.93;;;0.80;;
55372;SDS011;41249;47.838;16.490;2022-10-04T09:11:22;4.28;;;0.60;;
55372;SDS011;41249;47.838;16.490;2022-10-04T09:17:35;1.15;;;0.65;;
55372;SDS011;41249;47.838;16.490;2022-10-04T09:22:54;1.17;;;0.73;;
55372;SDS011;41249;47.838;16.490;2022-10-04T09:25:41;4.03;;;0.68;;
55372;SDS011;41249;47.838;16.490;2022-10-04T09:28:20;2.33;;;0.80;;
55372;SDS011;41249;47.838;16.490;2022-10-04T09:53:39;3.20;;;0.82;;
55372;SDS011;41249;47.838;16.490;2022-10-04T10:05:00;1.73;;;0.75;;
55372;SDS011;41249;47.838;16.490;2022-10-04T10:21:47;3.60;;;0.60;;
55372;SDS011;41249;47.838;16.490;2022-10-04T10:24:25;2.72;;;0.70;;
55372;SDS011;41249;47.838;16.490;2022-10-04T10:30:29;1.88;;;0.88;;
55372;SDS011;41249;47.838;16.490;2022-10-04T10:38:39;6.15;;;0.80;;
55372;SDS011;41249;47.838;16.490;2022-10-04T10:47:20;3.78;;;1.30;;
55372;SDS011;41249;47.838;16.490;2022-10-04T10:50:30;3.10;;;0.70;;
55372;SDS011;41249;47.838;16.490;2022-10-04T11:27:34;0.85;;;0.50;;
55372;SDS011;41249;47.838;16.490;2022-10-04T11:41:22;1.80;;;0.55;;
55372;SDS011;41249;47.838;16.490;2022-10-04T11:47:18;2.05;;;0.60;;
55372;SDS011;41249;47.838;16.490;2022-10-04T11:57:57;1.00;;;0.40;;
55372;SDS011;41249;47.838;16.490;2022-10-04T12:00:50;4.95;;;0.90;;
55372;SDS011;41249;47.838;16.490;2022-10-04T12:03:41;3.25;;;0.65;;
55372;SDS011;41249;47.838;16.490;2022-10-04T12:09:07;1.92;;;0.60;;
55372;SDS011;41249;47.838;16.490;2022-10-04T12:12:31;2.45;;;0.60;;
55372;SDS011;41249;47.838;16.490;2022-10-04T12:17:48;1.60;;;0.65;;
55372;SDS011;41249;47.838;16.490;2022-10-04T12:31:50;1.17;;;0.60;;
55372;SDS011;41249;47.838;16.490;2022-10-04T12:35:05;1.52;;;0.68;;
55372;SDS011;41249;47.838;16.490;2022-10-04T12:40:41;0.90;;;0.50;;
55372;SDS011;41249;47.838;16.490;2022-10-04T12:43:35;1.17;;;0.70;;
55372;SDS011;41249;47.838;16.490;2022-10-04T12:54:41;2.55;;;0.80;;
55372;SDS011;41249;47.838;16.490;2022-10-04T13:07:52;2.00;;;0.75;;
55372;SDS011;41249;47.838;16.490;2022-10-04T13:10:55;2.90;;;1.10;;
55372;SDS011;41249;47.838;16.490;2022-10-04T13:13:43;0.70;;;0.53;;
55372;SDS011;41249;47.838;16.490;2022-10-04T13:31:34;2.60;;;0.60;;
55372;SDS011;41249;47.838;16.490;2022-10-04T13:37:18;1.50;;;0.60;;
55372;SDS011;41249;47.838;16.490;2022-10-04T13:42:54;1.48;;;0.50;;
55372;SDS011;41249;47.838;16.490;2022-10-04T13:53:55;2.45;;;0.60;;
55372;SDS011;41249;47.838;16.490;2022-10-04T13:59:52;2.65;;;0.73;;
55372;SDS011;41249;47.838;16.490;2022-10-04T14:13:52;2.95;;;0.65;;
55372;SDS011;41249;47.838;16.490;2022-10-04T14:16:43;2.20;;;0.75;;
55372;SDS011;41249;47.838;16.490;2022-10-04T14:22:49;1.55;;;0.68;;
55372;SDS011;41249;47.838;16.490;2022-10-04T14:26:00;1.05;;;0.60;;
55372;SDS011;41249;47.838;16.490;2022-10-04T14:28:57;1.20;;;0.68;;
55372;SDS011;41249;47.838;16.490;2022-10-04T14:37:05;1.33;;;0.60;;
55372;SDS011;41249;47.838;16.490;2022-10-04T14:39:52;2.42;;;0.50;;
55372;SDS011;41249;47.838;16.490;2022-10-04T14:42:38;1.27;;;0.63;;
55372;SDS011;41249;47.838;16.490;2022-10-04T14:45:20;3.13;;;0.80;;
55372;SDS011;41249;47.838;16.490;2022-10-04T14:48:08;1.13;;;0.55;;
55372;SDS011;41249;47.838;16.490;2022-10-04T14:54:03;1.88;;;0.73;;
55372;SDS011;41249;47.838;16.490;2022-10-04T15:26:53;4.18;;;0.70;;
55372;SDS011;41249;47.838;16.490;2022-10-04T15:29:50;1.35;;;0.75;;
55372;SDS011;41249;47.838;16.490;2022-10-04T15:38:21;1.52;;;0.80;;
55372;SDS011;41249;47.838;16.490;2022-10-04T15:43:44;2.22;;;0.70;;
55372;SDS011;41249;47.838;16.490;2022-10-04T15:46:35;5.18;;;0.90;;
55372;SDS011;41249;47.838;16.490;2022-10-04T16:00:19;2.00;;;0.73;;
55372;SDS011;41249;47.838;16.490;2022-10-04T16:05:34;4.55;;;0.90;;
55372;SDS011;41249;47.838;16.490;2022-10-04T16:13:40;2.50;;;0.75;;
55372;SDS011;41249;47.838;16.490;2022-10-04T16:39:53;2.17;;;0.75;;
55372;SDS011;41249;47.838;16.490;2022-10-04T16:50:09;4.20;;;1.00;;
55372;SDS011;41249;47.838;16.490;2022-10-04T16:56:21;1.42;;;0.90;;
55372;SDS011;41249;47.838;16.490;2022-10-04T17:06:49;1.73;;;1.05;;
55372;SDS011;41249;47.838;16.490;2022-10-04T17:17:47;2.78;;;0.90;;
55372;SDS011;41249;47.838;16.490;2022-10-04T17:25:58;4.18;;;0.90;;
55372;SDS011;41249;47.838;16.490;2022-10-04T17:28:56;1.65;;;0.98;;
55372;SDS011;41249;47.838;16.490;2022-10-04T17:31:56;4.38;;;1.40;;
55372;SDS011;41249;47.838;16.490;2022-10-04T17:54:11;4.63;;;2.78;;
55372;SDS011;41249;47.838;16.490;2022-10-04T17:59:30;7.00;;;2.88;;
55372;SDS011;41249;47.838;16.490;2022-10-04T18:02:09;4.20;;;2.45;;
55372;SDS011;41249;47.838;16.490;2022-10-04T18:05:02;7.53;;;2.70;;
55372;SDS011;41249;47.838;16.490;2022-10-04T18:07:42;8.88;;;3.83;;
55372;SDS011;41249;47.838;16.490;2022-10-04T18:10:56;6.95;;;3.42;;
55372;SDS011;41249;47.838;16.490;2022-10-04T18:13:14;6.35;;;2.88;;
55372;SDS011;41249;47.838;16.490;2022-10-04T18:18:28;7.72;;;3.05;;
55372;SDS011;41249;47.838;16.490;2022-10-04T18:21:03;5.10;;;2.28;;
55372;SDS011;41249;47.838;16.490;2022-10-04T18:23:34;3.60;;;2.00;;
55372;SDS011;41249;47.838;16.490;2022-10-04T18:26:06;4.43;;;2.22;;
55372;SDS011;41249;47.838;16.490;2022-10-04T18:28:43;3.00;;;2.15;;
55372;SDS011;41249;47.838;16.490;2022-10-04T18:33:55;5.13;;;1.40;;
55372;SDS011;41249;47.838;16.490;2022-10-04T18:36:27;1.92;;;1.33;;
55372;SDS011;41249;47.838;16.490;2022-10-04T18:41:44;5.50;;;1.40;;
55372;SDS011;41249;47.838;16.490;2022-10-04T18:44:21;2.35;;;1.40;;
55372;SDS011;41249;47.838;16.490;2022-10-04T18:49:23;1.85;;;1.13;;
55372;SDS011;41249;47.838;16.490;2022-10-04T18:57:30;1.10;;;0.82;;
55372;SDS011;41249;47.838;16.490;2022-10-04T19:00:24;2.60;;;1.15;;
55372;SDS011;41249;47.838;16.490;2022-10-04T19:03:26;3.00;;;1.40;;
55372;SDS011;41249;47.838;16.490;2022-10-04T19:06:09;1.90;;;1.20;;
55372;SDS011;41249;47.838;16.490;2022-10-04T19:08:49;2.17;;;1.42;;
55372;SDS011;41249;47.838;16.490;2022-10-04T19:11:41;2.15;;;1.20;;
55372;SDS011;41249;47.838;16.490;2022-10-04T19:16:59;2.58;;;1.40;;
55372;SDS011;41249;47.838;16.490;2022-10-04T19:19:40;2.30;;;1.38;;
55372;SDS011;41249;47.838;16.490;2022-10-04T19:25:15;4.13;;;1.67;;
55372;SDS011;41249;47.838;16.490;2022-10-04T19:30:43;3.75;;;1.67;;
55372;SDS011;41249;47.838;16.490;2022-10-04T19:46:38;3.45;;;1.48;;
55372;SDS011;41249;47.838;16.490;2022-10-04T19:52:11;4.82;;;1.88;;
55372;SDS011;41249;47.838;16.490;2022-10-04T19:54:49;3.92;;;1.90;;
55372;SDS011;41249;47.838;16.490;2022-10-04T19:57:32;7.28;;;1.60;;
55372;SDS011;41249;47.838;16.490;2022-10-04T20:00:04;6.00;;;2.42;;
55372;SDS011;41249;47.838;16.490;2022-10-04T20:02:36;4.13;;;1.70;;
55372;SDS011;41249;47.838;16.490;2022-10-04T20:05:10;3.70;;;2.33;;
55372;SDS011;41249;47.838;16.490;2022-10-04T20:07:46;4.55;;;2.00;;
55372;SDS011;41249;47.838;16.490;2022-10-04T20:13:02;2.92;;;1.80;;
55372;SDS011;41249;47.838;16.490;2022-10-04T20:15:51;2.58;;;1.90;;
55372;SDS011;41249;47.838;16.490;2022-10-04T20:26:05;5.35;;;1.70;;
55372;SDS011;41249;47.838;16.490;2022-10-04T20:31:04;2.90;;;1.70;;
55372;SDS011;41249;47.838;16.490;2022-10-04T20:36:03;2.28;;;1.40;;
55372;SDS011;41249;47.838;16.490;2022-10-04T20:43:55;2.70;;;1.52;;
55372;SDS011;41249;47.838;16.490;2022-10-04T20:46:23;3.25;;;2.00;;
55372;SDS011;41249;47.838;16.490;2022-10-04T20:48:52;1.40;;;0.98;;
55372;SDS011;41249;47.838;16.490;2022-10-04T20:51:20;3.70;;;1.30;;
55372;SDS011;41249;47.838;16.490;2022-10-04T20:53:48;2.45;;;1.15;;
55372;SDS011;41249;47.838;16.490;2022-10-04T20:58:55;4.03;;;0.80;;
55372;SDS011;41249;47.838;16.490;2022-10-04T21:01:25;2.40;;;1.10;;
55372;SDS011;41249;47.838;16.490;2022-10-04T21:06:54;7.43;;;1.60;;
55372;SDS011;41249;47.838;16.490;2022-10-04T21:09:23;3.50;;;1.90;;
55372;SDS011;41249;47.838;16.490;2022-10-04T21:11:50;5.20;;;1.90;;
55372;SDS011;41249;47.838;16.490;2022-10-04T21:14:25;3.67;;;1.45;;
55372;SDS011;41249;47.838;16.490;2022-10-04T21:16:59;1.30;;;1.10;;
55372;SDS011;41249;47.838;16.490;2022-10-04T21:21:58;4.53;;;2.00;;
55372;SDS011;41249;47.838;16.490;2022-10-04T21:24:27;5.82;;;1.90;;
55372;SDS011;41249;47.838;16.490;2022-10-04T21:27:01;6.10;;;1.73;;
55372;SDS011;41249;47.838;16.490;2022-10-04T21:29:29;6.60;;;2.13;;
55372;SDS011;41249;47.838;16.490;2022-10-04T21:31:56;2.22;;;1.30;;
55372;SDS011;41249;47.838;16.490;2022-10-04T21:34:25;1.77;;;1.40;;
55372;SDS011;41249;47.838;16.490;2022-10-04T21:37:12;5.15;;;1.55;;
55372;SDS011;41249;47.838;16.490;2022-10-04T21:39:40;4.07;;;2.03;;
55372;SDS011;41249;47.838;16.490;2022-10-04T21:42:06;2.55;;;1.83;;
55372;SDS011;41249;47.838;16.490;2022-10-04T21:44:33;1.65;;;1.20;;
55372;SDS011;41249;47.838;16.490;2022-10-04T21:47:00;2.03;;;1.35;;
55372;SDS011;41249;47.838;16.490;2022-10-04T21:49:26;6.10;;;1.95;;
55372;SDS011;41249;47.838;16.490;2022-10-04T21:51:53;1.45;;;0.90;;
55372;SDS011;41249;47.838;16.490;2022-10-04T21:54:19;2.25;;;1.35;;
55372;SDS011;41249;47.838;16.490;2022-10-04T21:56:46;2.10;;;1.20;;
55372;SDS011;41249;47.838;16.490;2022-10-04T21:59:13;3.80;;;1.67;;
55372;SDS011;41249;47.838;16.490;2022-10-04T22:01:40;3.65;;;1.90;;
55372;SDS011;41249;47.838;16.490;2022-10-04T22:04:06;2.83;;;1.67;;
55372;SDS011;41249;47.838;16.490;2022-10-04T22:09:50;3.83;;;1.67;;
55372;SDS011;41249;47.838;16.490;2022-10-04T22:12:17;2.97;;;1.55;;
55372;SDS011;41249;47.838;16.490;2022-10-04T22:18:20;3.08;;;1.58;;
55372;SDS011;41249;47.838;16.490;2022-10-04T22:20:46;4.90;;;1.90;;
55372;SDS011;41249;47.838;16.490;2022-10-04T22:23:22;2.30;;;1.70;;
55372;SDS011;41249;47.838;16.490;2022-10-04T22:25:51;2.38;;;1.70;;
55372;SDS011;41249;47.838;16.490;2022-10-04T22:28:28;2.58;;;1.70;;
55372;SDS011;41249;47.838;16.490;2022-10-04T22:30:55;2.95;;;1.67;;
55372;SDS011;41249;47.838;16.490;2022-10-04T22:33:35;3.42;;;1.60;;
55372;SDS011;41249;47.838;16.490;2022-10-04T22:36:12;4.60;;;1.63;;
55372;SDS011;41249;47.838;16.490;2022-10-04T22:38:49;3.40;;;1.60;;
55372;SDS011;41249;47.838;16.490;2022-10-04T22:41:21;2.60;;;1.45;;
55372;SDS011;41249;47.838;16.490;2022-10-04T22:43:51;4.07;;;1.50;;
55372;SDS011;41249;47.838;16.490;2022-10-04T22:46:21;3.13;;;1.52;;
55372;SDS011;41249;47.838;16.490;2022-10-04T22:48:53;3.95;;;1.80;;
55372;SDS011;41249;47.838;16.490;2022-10-04T22:51:19;2.17;;;1.50;;
55372;SDS011;41249;47.838;16.490;2022-10-04T22:53:46;3.22;;;1.10;;
55372;SDS011;41249;47.838;16.490;2022-10-04T22:56:13;2.58;;;1.50;;
55372;SDS011;41249;47.838;16.490;2022-10-04T22:58:40;2.85;;;1.50;;
55372;SDS011;41249;47.838;16.490;2022-10-04T23:01:14;4.03;;;1.40;;
55372;SDS011;41249;47.838;16.490;2022-10-04T23:03:47;2.72;;;1.58;;
55372;SDS011;41249;47.838;16.490;2022-10-04T23:06:14;4.53;;;1.60;;
55372;SDS011;41249;47.838;16.490;2022-10-04T23:08:41;2.75;;;1.48;;
55372;SDS011;41249;47.838;16.490;2022-10-04T23:11:08;2.60;;;1.58;;
55372;SDS011;41249;47.838;16.490;2022-10-04T23:13:35;4.93;;;1.50;;
55372;SDS011;41249;47.838;16.490;2022-10-04T23:16:10;3.63;;;1.63;;
55372;SDS011;41249;47.838;16.490;2022-10-04T23:18:39;3.30;;;1.55;;
55372;SDS011;41249;47.838;16.490;2022-10-04T23:21:16;2.20;;;1.35;;
55372;SDS011;41249;47.838;16.490;2022-10-04T23:23:47;3.45;;;1.67;;
55372;SDS011;41249;47.838;16.490;2022-10-04T23:26:20;2.95;;;1.13;;
55372;SDS011;41249;47.838;16.490;2022-10-04T23:28:49;1.67;;;1.25;;
55372;SDS011;41249;47.838;16.490;2022-10-04T23:31:23;8.77;;;1.40;;
55372;SDS011;41249;47.838;16.490;2022-10-04T23:33:54;3.53;;;1.23;;
55372;SDS011;41249;47.838;16.490;2022-10-04T23:36:22;5.10;;;1.50;;
55372;SDS011;41249;47.838;16.490;2022-10-04T23:38:58;2.40;;;1.10;;
55372;SDS011;41249;47.838;16.490;2022-10-04T23:41:26;1.73;;;1.13;;
55372;SDS011;41249;47.838;16.490;2022-10-04T23:43:53;1.95;;;1.02;;
55372;SDS011;41249;47.838;16.490;2022-10-04T23:46:21;1.75;;;1.15;;
55372;SDS011;41249;47.838;16.490;2022-10-04T23:48:49;2.60;;;1.40;;
55372;SDS011;41249;47.838;16.490;2022-10-04T23:51:17;2.38;;;1.30;;
55372;SDS011;41249;47.838;16.490;2022-10-04T23:53:45;7.70;;;1.85;;
55372;SDS011;41249;47.838;16.490;2022-10-04T23:56:19;1.92;;;1.20;;
